Time;durP1;ratioP1;P1;durP2;ratioP2;P2;SDS_P1;SDS_P2;PMS_P1;PMS_P2;Temp;Humidity;BMP_temperature;BMP_pressure;BME280_temperature;BME280_humidity;BME280_pressure;Samples;Min_cycle;Max_cycle;Signal;HPM_P1;HPM_P2
2024/01/11 00:00:08;;;;;;;;;;;;;;;22.03;13.80;98829.50;4995843;28;987;-76
2024/01/11 00:02:34;;;;;;;;;;;;;;;22.00;14.15;98829.56;5034862;28;1048;-76
2024/01/11 00:05:00;;;;;;;;;;;;;;;21.82;13.98;98830.63;5018313;28;882;-76
2024/01/11 00:07:25;;;;;;;;;;;;;;;21.82;14.45;98836.28;5047891;28;900;-76
2024/01/11 00:09:51;;;;;;;;;;;;;;;21.93;13.96;98835.34;5074871;28;1559;-76
2024/01/11 00:12:16;;;;;;;;;;;;;;;21.94;14.15;98831.25;5057892;28;1980;-76
2024/01/11 00:14:42;;;;;;;;;;;;;;;22.05;14.09;98829.88;5075046;28;727;-76
2024/01/11 00:17:07;;;;;;;;;;;;;;;21.95;14.21;98818.69;5078278;28;798;-76
2024/01/11 00:19:33;;;;;;;;;;;;;;;21.73;14.07;98821.03;5098277;28;1199;-76
2024/01/11 00:21:59;;;;;;;;;;;;;;;22.07;13.90;98823.75;5098373;28;763;-76
2024/01/11 00:24:24;;;;;;;;;;;;;;;21.72;14.43;98831.56;5080849;28;865;-76
2024/01/11 00:26:50;;;;;;;;;;;;;;;21.81;13.95;98828.19;5115361;28;766;-76
2024/01/11 00:29:15;;;;;;;;;;;;;;;21.81;13.94;98834.69;5081302;28;1266;-76
2024/01/11 00:31:41;;;;;;;;;;;;;;;21.94;13.90;98823.56;5115127;28;746;-76
2024/01/11 00:34:07;;;;;;;;;;;;;;;21.94;13.83;98823.56;5072699;28;1906;-76
2024/01/11 00:36:33;;;;;;;;;;;;;;;21.71;14.19;98824.31;5039523;28;1419;-76
2024/01/11 00:38:58;;;;;;;;;;;;;;;21.50;14.38;98824.56;5038953;28;1231;-76
2024/01/11 00:41:25;;;;;;;;;;;;;;;21.93;13.95;98821.16;5055698;28;1209;-76
2024/01/11 00:43:50;;;;;;;;;;;;;;;21.75;14.09;98821.41;5039149;28;763;-76
2024/01/11 00:46:16;;;;;;;;;;;;;;;21.79;14.21;98814.47;5056924;28;777;-76
2024/01/11 00:48:41;;;;;;;;;;;;;;;21.85;14.23;98812.75;5017485;28;1183;-76
2024/01/11 00:51:07;;;;;;;;;;;;;;;21.97;14.03;98819.09;5034404;28;855;-76
2024/01/11 00:53:33;;;;;;;;;;;;;;;21.67;14.36;98817.09;5001043;28;1979;-76
2024/01/11 00:55:59;;;;;;;;;;;;;;;21.91;13.89;98809.44;5017898;28;790;-76
2024/01/11 00:58:24;;;;;;;;;;;;;;;22.01;14.03;98814.16;5001160;28;1339;-76
2024/01/11 01:00:52;;;;;;;;;;;;;;;22.08;13.67;98809.19;5018334;28;755;-76
2024/01/11 01:03:18;;;;;;;;;;;;;;;21.87;14.23;98809.50;5017484;28;771;-76
2024/01/11 01:05:44;;;;;;;;;;;;;;;21.93;14.09;98807.00;5017384;28;802;-76
2024/01/11 01:08:10;;;;;;;;;;;;;;;21.97;13.71;98796.41;5001110;28;1251;-76
2024/01/11 01:10:35;;;;;;;;;;;;;;;21.94;13.99;98805.75;5034190;28;1092;-76
2024/01/11 01:13:02;;;;;;;;;;;;;;;21.96;13.88;98797.63;5017462;28;1938;-76
2024/01/11 01:15:28;;;;;;;;;;;;;;;22.05;13.64;98795.06;5017612;28;1129;-76
2024/01/11 01:17:53;;;;;;;;;;;;;;;21.88;13.90;98794.13;5034028;28;716;-76
2024/01/11 01:20:19;;;;;;;;;;;;;;;21.84;14.05;98785.66;5050854;28;792;-76
2024/01/11 01:22:44;;;;;;;;;;;;;;;21.67;14.26;98783.91;5055058;28;747;-76
2024/01/11 01:25:10;;;;;;;;;;;;;;;21.81;14.01;98778.03;5055463;28;786;-76
2024/01/11 01:27:36;;;;;;;;;;;;;;;21.46;14.13;98779.34;5055089;28;832;-76
2024/01/11 01:30:01;;;;;;;;;;;;;;;21.89;14.20;98775.06;5037594;28;877;-77
2024/01/11 01:32:27;;;;;;;;;;;;;;;22.00;13.77;98772.88;5054835;28;1906;-76
2024/01/11 01:34:52;;;;;;;;;;;;;;;22.01;13.89;98763.94;5038419;28;792;-76
2024/01/11 01:37:18;;;;;;;;;;;;;;;22.02;13.70;98764.72;5054218;28;763;-76
2024/01/11 01:39:44;;;;;;;;;;;;;;;22.00;13.72;98755.88;5038358;28;855;-76
2024/01/11 01:42:09;;;;;;;;;;;;;;;21.77;14.00;98754.63;5036727;28;1247;-76
2024/01/11 01:44:35;;;;;;;;;;;;;;;21.98;13.66;98747.00;5036743;28;953;-76
2024/01/11 01:47:00;;;;;;;;;;;;;;;22.05;13.96;98746.88;5020520;28;1322;-76
2024/01/11 01:49:26;;;;;;;;;;;;;;;22.11;13.62;98742.34;5036610;28;794;-76
2024/01/11 01:51:52;;;;;;;;;;;;;;;21.86;13.79;98742.72;5053218;28;819;-76
2024/01/11 01:54:18;;;;;;;;;;;;;;;22.00;13.87;98744.53;5036573;28;1914;-76
2024/01/11 01:56:43;;;;;;;;;;;;;;;21.94;13.79;98740.59;5020258;28;1389;-76
2024/01/11 01:59:10;;;;;;;;;;;;;;;21.90;13.93;98734.19;5036798;28;923;-76
2024/01/11 02:01:36;;;;;;;;;;;;;;;21.73;14.05;98736.88;5020322;28;906;-76
2024/01/11 02:04:01;;;;;;;;;;;;;;;21.95;14.06;98736.53;5036588;28;886;-76
2024/01/11 02:06:27;;;;;;;;;;;;;;;21.74;13.85;98741.28;5036514;28;739;-76
2024/01/11 02:08:55;;;;;;;;;;;;;;;21.73;13.90;98731.19;5036667;28;805;-76
2024/01/11 02:11:23;;;;;;;;;;;;;;;21.96;13.62;98738.13;5036658;28;1116;-76
2024/01/11 02:13:49;;;;;;;;;;;;;;;21.96;13.77;98730.41;5033109;28;1987;-76
2024/01/11 02:16:15;;;;;;;;;;;;;;;21.94;13.65;98732.09;5054218;28;849;-76
2024/01/11 02:18:40;;;;;;;;;;;;;;;21.57;13.91;98733.88;5055488;28;958;-76
2024/01/11 02:21:07;;;;;;;;;;;;;;;21.84;13.75;98726.16;5056060;28;738;-76
2024/01/11 02:23:32;;;;;;;;;;;;;;;21.96;13.60;98726.78;5037801;28;1110;-76
2024/01/11 02:25:58;;;;;;;;;;;;;;;22.03;13.65;98721.03;5037841;28;1226;-76
2024/01/11 02:28:23;;;;;;;;;;;;;;;21.78;13.82;98716.56;5053059;28;905;-76
2024/01/11 02:30:49;;;;;;;;;;;;;;;21.91;13.77;98725.25;5036466;28;1141;-76
2024/01/11 02:33:16;;;;;;;;;;;;;;;21.78;13.73;98705.22;5035981;28;1906;-76
2024/01/11 02:35:42;;;;;;;;;;;;;;;22.00;13.72;98710.53;5020357;28;1479;-76
2024/01/11 02:38:08;;;;;;;;;;;;;;;21.98;13.85;98705.31;5036440;28;814;-76
2024/01/11 02:40:34;;;;;;;;;;;;;;;21.88;13.97;98711.16;5020011;28;1368;-76
2024/01/11 02:43:07;;;;;;;;;;;;;;;21.87;13.80;98710.34;5035916;28;1001;-76
2024/01/11 02:45:32;;;;;;;;;;;;;;;21.89;13.61;98712.75;5019959;28;1419;-76
2024/01/11 02:47:58;;;;;;;;;;;;;;;21.99;13.83;98711.78;5036818;28;901;-76
2024/01/11 02:50:24;;;;;;;;;;;;;;;22.18;13.66;98711.06;5023271;28;1323;-76
2024/01/11 02:52:49;;;;;;;;;;;;;;;22.04;13.51;98712.06;5039619;28;1977;-76
2024/01/11 02:55:15;;;;;;;;;;;;;;;21.84;13.65;98714.03;5023341;28;1225;-76
2024/01/11 02:57:40;;;;;;;;;;;;;;;21.84;14.03;98706.34;5019769;28;1161;-76
2024/01/11 03:00:06;;;;;;;;;;;;;;;21.95;13.75;98703.31;5019928;28;993;-76
2024/01/11 03:02:32;;;;;;;;;;;;;;;21.95;13.51;98702.53;5019932;28;1446;-76
2024/01/11 03:04:57;;;;;;;;;;;;;;;21.83;13.87;98710.41;5019788;28;1349;-76
2024/01/11 03:07:23;;;;;;;;;;;;;;;22.03;13.63;98704.00;5019634;28;936;-76
2024/01/11 03:09:48;;;;;;;;;;;;;;;22.06;13.68;98703.13;5036151;28;1136;-76
2024/01/11 03:12:14;;;;;;;;;;;;;;;22.03;13.78;98698.34;5036048;28;1906;-76
2024/01/11 03:14:39;;;;;;;;;;;;;;;21.98;13.71;98696.00;5019329;28;1468;-76
2024/01/11 03:17:05;;;;;;;;;;;;;;;21.96;13.47;98704.13;5035961;28;879;-76
2024/01/11 03:19:31;;;;;;;;;;;;;;;21.93;13.92;98696.50;5019520;28;1107;-76
2024/01/11 03:21:56;;;;;;;;;;;;;;;22.04;13.54;98694.28;5035770;28;914;-76
2024/01/11 03:24:22;;;;;;;;;;;;;;;22.06;13.74;98677.63;5035749;28;838;-76
2024/01/11 03:26:48;;;;;;;;;;;;;;;21.99;13.50;98686.25;5036074;28;775;-76
2024/01/11 03:29:13;;;;;;;;;;;;;;;22.33;13.30;98684.06;5034840;28;814;-76
2024/01/11 03:31:42;;;;;;;;;;;;;;;21.80;13.68;98674.41;5056903;28;806;-76
2024/01/11 03:34:08;;;;;;;;;;;;;;;21.96;13.52;98681.44;5057015;28;1988;-76
2024/01/11 03:36:33;;;;;;;;;;;;;;;22.01;13.58;98678.13;5056714;28;735;-76
2024/01/11 03:38:59;;;;;;;;;;;;;;;21.67;13.69;98681.16;5058133;28;759;-76
2024/01/11 03:41:25;;;;;;;;;;;;;;;21.98;13.46;98667.66;5057999;28;723;-76
2024/01/11 03:43:50;;;;;;;;;;;;;;;22.02;13.44;98685.38;5035317;28;926;-76
2024/01/11 03:46:16;;;;;;;;;;;;;;;21.66;13.81;98680.34;5002573;28;1209;-76
2024/01/11 03:48:41;;;;;;;;;;;;;;;22.06;13.54;98674.78;5019228;28;1176;-76
2024/01/11 03:51:07;;;;;;;;;;;;;;;22.04;13.51;98674.44;5035205;28;1139;-76
2024/01/11 03:53:36;;;;;;;;;;;;;;;22.05;13.40;98673.19;5035287;28;1910;-76
2024/01/11 03:56:02;;;;;;;;;;;;;;;22.06;13.48;98669.13;5018907;28;1091;-76
2024/01/11 03:58:28;;;;;;;;;;;;;;;22.11;13.42;98671.50;5018247;28;1234;-76
2024/01/11 04:00:53;;;;;;;;;;;;;;;22.09;13.55;98659.78;5018615;28;798;-76
2024/01/11 04:03:19;;;;;;;;;;;;;;;21.98;13.44;98664.84;5018824;28;972;-76
2024/01/11 04:05:45;;;;;;;;;;;;;;;21.67;13.82;98659.28;5018825;28;680;-76
2024/01/11 04:08:10;;;;;;;;;;;;;;;21.99;13.56;98666.44;5034969;28;917;-76
2024/01/11 04:10:36;;;;;;;;;;;;;;;22.20;13.29;98654.72;5018308;28;1209;-76
2024/01/11 04:13:01;;;;;;;;;;;;;;;22.26;13.45;98655.03;5018612;28;1965;-76
2024/01/11 04:15:27;;;;;;;;;;;;;;;22.01;13.44;98655.44;5030205;28;1028;-76
2024/01/11 04:17:52;;;;;;;;;;;;;;;22.09;13.42;98656.94;5018578;28;959;-76
2024/01/11 04:20:18;;;;;;;;;;;;;;;22.25;13.60;98653.44;5034883;28;847;-76
2024/01/11 04:22:44;;;;;;;;;;;;;;;22.39;13.16;98641.03;5034919;28;803;-76
2024/01/11 04:25:10;;;;;;;;;;;;;;;22.39;13.48;98641.03;5034814;28;780;-76
2024/01/11 04:27:35;;;;;;;;;;;;;;;21.91;13.79;98639.44;5034771;28;1063;-76
2024/01/11 04:30:01;;;;;;;;;;;;;;;22.05;13.76;98650.53;5034497;28;834;-76
2024/01/11 04:32:26;;;;;;;;;;;;;;;22.00;13.75;98648.19;5014847;28;1910;-76
2024/01/11 04:34:52;;;;;;;;;;;;;;;22.14;13.47;98650.81;4998362;28;1090;-76
2024/01/11 04:37:18;;;;;;;;;;;;;;;22.20;13.52;98651.91;5014690;28;901;-76
2024/01/11 04:39:43;;;;;;;;;;;;;;;22.05;13.43;98656.19;4998184;28;866;-76
2024/01/11 04:42:09;;;;;;;;;;;;;;;22.12;13.43;98653.25;4998093;28;846;-76
2024/01/11 04:44:35;;;;;;;;;;;;;;;22.19;13.35;98644.63;4998284;28;1024;-76
2024/01/11 04:47:00;;;;;;;;;;;;;;;22.16;13.60;98648.31;5029286;28;933;-76
2024/01/11 04:49:26;;;;;;;;;;;;;;;22.06;13.48;98647.25;5017897;28;905;-76
2024/01/11 04:51:52;;;;;;;;;;;;;;;21.93;13.88;98648.31;5017661;28;774;-77
2024/01/11 04:54:17;;;;;;;;;;;;;;;21.88;13.90;98657.31;5017886;28;1914;-76
2024/01/11 04:56:43;;;;;;;;;;;;;;;22.09;13.63;98651.28;5033799;28;970;-76
2024/01/11 04:59:08;;;;;;;;;;;;;;;22.21;13.36;98647.81;4984750;28;1343;-76
2024/01/11 05:01:34;;;;;;;;;;;;;;;22.08;13.43;98652.50;5018155;28;999;-76
2024/01/11 05:03:59;;;;;;;;;;;;;;;22.04;13.55;98651.78;5034168;28;985;-76
2024/01/11 05:06:25;;;;;;;;;;;;;;;22.15;13.54;98652.41;4985164;28;1709;-76
2024/01/11 05:08:53;;;;;;;;;;;;;;;22.15;13.54;98648.75;5002986;28;1149;-76
2024/01/11 05:11:19;;;;;;;;;;;;;;;22.23;13.39;98650.25;5054323;28;1047;-76
2024/01/11 05:13:47;;;;;;;;;;;;;;;21.96;13.57;98648.25;5039000;28;1906;-76
2024/01/11 05:16:31;;;;;;;;;;;;;;;22.10;13.60;98641.53;5038421;28;1636;-75
2024/01/11 05:18:57;;;;;;;;;;;;;;;22.00;13.89;98642.53;5051281;28;1058;-76
2024/01/11 05:21:22;;;;;;;;;;;;;;;21.85;13.65;98642.78;5051604;28;1783;-75
2024/01/11 05:23:48;;;;;;;;;;;;;;;21.87;13.72;98638.72;5055442;28;1065;-75
2024/01/11 05:26:14;;;;;;;;;;;;;;;22.04;13.61;98637.59;5037344;28;1204;-75
2024/01/11 05:28:40;;;;;;;;;;;;;;;21.99;13.57;98635.25;5052767;28;1642;-75
2024/01/11 05:31:07;;;;;;;;;;;;;;;21.81;13.87;98632.72;5083983;28;1911;-75
2024/01/11 05:33:32;;;;;;;;;;;;;;;21.99;13.52;98629.59;5054260;28;1964;-75
2024/01/11 05:35:58;;;;;;;;;;;;;;;22.13;13.63;98628.56;5055498;28;1039;-75
2024/01/11 05:38:23;;;;;;;;;;;;;;;22.06;13.48;98629.44;5070017;28;2291;-75
2024/01/11 05:40:49;;;;;;;;;;;;;;;21.96;13.60;98619.13;5087839;28;969;-75
2024/01/11 05:43:15;;;;;;;;;;;;;;;21.92;13.66;98624.06;5054189;28;1167;-75
2024/01/11 05:45:40;;;;;;;;;;;;;;;22.10;13.46;98624.53;5054068;28;974;-74
2024/01/11 05:48:06;;;;;;;;;;;;;;;22.09;13.64;98617.25;5054350;28;988;-75
2024/01/11 05:50:31;;;;;;;;;;;;;;;21.84;13.61;98612.06;5054195;28;979;-74
2024/01/11 05:52:57;;;;;;;;;;;;;;;22.25;13.47;98617.38;5036133;28;1997;-75
2024/01/11 05:55:23;;;;;;;;;;;;;;;22.04;13.56;98614.94;5050946;28;1194;-77
2024/01/11 05:57:48;;;;;;;;;;;;;;;22.10;13.71;98613.19;5073416;28;980;-77
2024/01/11 06:00:14;;;;;;;;;;;;;;;22.01;13.63;98610.13;5039789;28;994;-77
2024/01/11 06:02:40;;;;;;;;;;;;;;;22.12;13.67;98615.59;5055063;28;1783;-75
2024/01/11 06:05:09;;;;;;;;;;;;;;;21.98;13.75;98605.34;5039362;28;981;-75
2024/01/11 06:07:34;;;;;;;;;;;;;;;22.12;13.57;98599.41;5056336;28;965;-76
2024/01/11 06:10:02;;;;;;;;;;;;;;;22.29;13.39;98609.63;5072914;28;1095;-76
2024/01/11 06:12:28;;;;;;;;;;;;;;;22.36;13.31;98606.63;5072933;28;1902;-76
2024/01/11 06:14:54;;;;;;;;;;;;;;;22.22;13.38;98606.09;5056128;28;1118;-75
2024/01/11 06:17:19;;;;;;;;;;;;;;;22.03;13.72;98602.00;5067518;28;2108;-76
2024/01/11 06:19:45;;;;;;;;;;;;;;;21.93;13.54;98603.00;5063429;28;1079;-76
2024/01/11 06:22:10;;;;;;;;;;;;;;;22.08;13.61;98607.97;5070960;28;1133;-76
2024/01/11 06:24:36;;;;;;;;;;;;;;;22.20;13.33;98603.72;5076094;28;1699;-76
2024/01/11 06:27:02;;;;;;;;;;;;;;;22.16;13.76;98611.47;5066537;28;1804;-76
2024/01/11 06:29:28;;;;;;;;;;;;;;;22.26;13.38;98604.00;5039205;28;1240;-77
2024/01/11 06:31:53;;;;;;;;;;;;;;;22.06;13.68;98606.78;5041528;28;1202;-77
2024/01/11 06:34:19;;;;;;;;;;;;;;;22.14;13.72;98596.16;5059064;28;1997;-76
2024/01/11 06:36:45;;;;;;;;;;;;;;;22.15;13.61;98603.41;5041448;28;1317;-77
2024/01/11 06:39:11;;;;;;;;;;;;;;;21.98;13.76;98599.66;5059198;28;998;-77
2024/01/11 06:41:36;;;;;;;;;;;;;;;21.95;13.64;98592.03;5040202;28;945;-76
2024/01/11 06:44:02;;;;;;;;;;;;;;;22.01;13.65;98601.63;5056246;28;931;-75
2024/01/11 06:46:27;;;;;;;;;;;;;;;22.07;13.69;98597.88;5016405;28;988;-76
2024/01/11 06:48:53;;;;;;;;;;;;;;;22.12;13.51;98598.59;5000338;28;1003;-76
2024/01/11 06:51:22;;;;;;;;;;;;;;;22.26;13.29;98604.00;5000221;28;1217;-75
2024/01/11 06:53:47;;;;;;;;;;;;;;;22.31;13.46;98601.47;5036036;28;1914;-75
2024/01/11 06:56:13;;;;;;;;;;;;;;;22.28;13.24;98596.69;5036270;28;1289;-76
2024/01/11 06:58:39;;;;;;;;;;;;;;;22.28;13.50;98590.22;5003459;28;1219;-76
2024/01/11 07:01:05;;;;;;;;;;;;;;;22.23;13.41;98600.03;5036101;28;945;-76
2024/01/11 07:03:30;;;;;;;;;;;;;;;22.21;13.44;98593.97;5035965;28;1289;-76
2024/01/11 07:05:56;;;;;;;;;;;;;;;22.01;13.85;98593.91;5003086;28;1088;-76
2024/01/11 07:08:22;;;;;;;;;;;;;;;22.30;13.27;98593.41;5019252;28;1008;-75
2024/01/11 07:10:48;;;;;;;;;;;;;;;21.88;13.80;98590.13;5003037;28;1252;-76
2024/01/11 07:13:16;;;;;;;;;;;;;;;22.06;13.37;98584.09;4986696;28;1947;-75
2024/01/11 07:15:42;;;;;;;;;;;;;;;22.19;13.23;98593.63;5003334;28;1192;-75
2024/01/11 07:18:08;;;;;;;;;;;;;;;22.07;13.57;98582.88;5069395;28;1078;-75
2024/01/11 07:20:33;;;;;;;;;;;;;;;21.92;13.75;98581.56;5077649;28;1237;-75
2024/01/11 07:22:59;;;;;;;;;;;;;;;22.11;13.79;98577.97;5078801;28;1235;-77
2024/01/11 07:25:25;;;;;;;;;;;;;;;22.21;13.26;98579.78;5061370;28;988;-74
2024/01/11 07:27:51;;;;;;;;;;;;;;;22.27;13.40;98588.59;5058219;28;1006;-77
2024/01/11 07:30:18;;;;;;;;;;;;;;;22.00;13.41;98585.84;5040045;28;1504;-75
2024/01/11 07:32:44;;;;;;;;;;;;;;;22.02;13.68;98589.03;5056563;28;1906;-75
2024/01/11 07:35:10;;;;;;;;;;;;;;;22.07;13.43;98578.03;5039370;28;1273;-75
2024/01/11 07:37:39;;;;;;;;;;;;;;;21.97;13.61;98581.06;5056346;28;1007;-75
2024/01/11 07:40:09;;;;;;;;;;;;;;;22.03;13.77;98585.00;5055948;28;1825;-75
2024/01/11 07:42:35;;;;;;;;;;;;;;;21.76;13.81;98585.91;5039827;28;1405;-75
2024/01/11 07:45:01;;;;;;;;;;;;;;;22.16;13.86;98583.13;5089698;28;1119;-76
2024/01/11 07:47:26;;;;;;;;;;;;;;;22.31;13.62;98584.44;5057781;28;972;-76
2024/01/11 07:49:52;;;;;;;;;;;;;;;22.17;13.71;98578.25;5089915;28;1057;-75
2024/01/11 07:52:18;;;;;;;;;;;;;;;21.96;13.62;98570.94;5056027;28;1906;-76
2024/01/11 07:54:43;;;;;;;;;;;;;;;22.29;13.53;98578.44;5088367;28;983;-75
2024/01/11 07:59:52;;;;;;;;;;;;;;;22.20;13.81;98571.72;5027366;28;1570;-70
2024/01/11 08:02:18;;;;;;;;;;;;;;;22.41;13.62;98564.81;5019411;28;1143;-68
2024/01/11 08:04:43;;;;;;;;;;;;;;;22.06;14.03;98572.78;5030101;28;1721;-69
2024/01/11 08:07:09;;;;;;;;;;;;;;;21.89;14.32;98566.22;5034126;28;1552;-72
2024/01/11 08:09:35;;;;;;;;;;;;;;;21.94;14.10;98560.06;5019666;28;1148;-73
2024/01/11 08:12:01;;;;;;;;;;;;;;;21.88;13.86;98572.31;5019942;28;1186;-73
2024/01/11 08:14:27;;;;;;;;;;;;;;;22.17;13.86;98567.72;5019327;28;1910;-73
2024/01/11 08:16:53;;;;;;;;;;;;;;;22.18;13.69;98565.72;5019784;28;955;-72
2024/01/11 08:19:19;;;;;;;;;;;;;;;21.99;14.08;98564.41;5019514;28;1019;-72
2024/01/11 08:21:44;;;;;;;;;;;;;;;22.12;13.62;98554.06;5002185;28;936;-72
2024/01/11 08:24:10;;;;;;;;;;;;;;;22.27;13.65;98552.53;5019475;28;1149;-72
2024/01/11 08:26:36;;;;;;;;;;;;;;;22.13;13.73;98543.53;5037093;28;1019;-74
2024/01/11 08:29:04;;;;;;;;;;;;;;;22.09;13.77;98549.25;5037241;28;966;-73
2024/01/11 08:31:30;;;;;;;;;;;;;;;22.15;14.02;98552.41;5002442;28;1747;-73
2024/01/11 08:33:55;;;;;;;;;;;;;;;22.14;13.79;98545.13;5050473;28;1971;-73
2024/01/11 08:36:21;;;;;;;;;;;;;;;22.02;13.77;98549.38;5018147;28;1764;-74
2024/01/11 08:38:47;;;;;;;;;;;;;;;22.07;14.07;98546.03;5001031;28;1559;-72
2024/01/11 08:41:13;;;;;;;;;;;;;;;22.28;13.63;98537.16;4999074;28;1892;-72
2024/01/11 08:43:39;;;;;;;;;;;;;;;22.03;14.07;98529.13;4989979;28;1207;-74
2024/01/11 08:46:04;;;;;;;;;;;;;;;22.15;13.68;98529.72;4985989;28;2157;-73
2024/01/11 08:48:30;;;;;;;;;;;;;;;22.21;13.72;98520.28;5007485;28;1962;-72
2024/01/11 08:50:56;;;;;;;;;;;;;;;22.30;13.65;98514.03;5052088;28;1039;-73
2024/01/11 08:53:21;;;;;;;;;;;;;;;22.18;13.67;98501.31;5034477;28;2051;-73
2024/01/11 08:55:47;;;;;;;;;;;;;;;22.07;13.66;98504.34;5010482;28;1100;-72
2024/01/11 08:58:13;;;;;;;;;;;;;;;22.34;13.52;98498.53;5024832;28;1944;-72
2024/01/11 09:00:38;;;;;;;;;;;;;;;22.36;13.63;98496.03;5029629;28;1543;-73
2024/01/11 09:03:04;;;;;;;;;;;;;;;22.20;13.90;98498.03;5000354;28;1097;-73
2024/01/11 09:05:29;;;;;;;;;;;;;;;22.32;13.69;98495.31;4999025;28;902;-72
2024/01/11 09:07:55;;;;;;;;;;;;;;;22.26;13.79;98488.56;4999315;28;1044;-72
2024/01/11 09:10:21;;;;;;;;;;;;;;;22.32;13.58;98489.66;4998929;28;1114;-73
2024/01/11 09:12:46;;;;;;;;;;;;;;;22.15;13.72;98479.50;5016877;28;2001;-73
2024/01/11 09:15:14;;;;;;;;;;;;;;;22.14;14.07;98477.91;4983055;28;1041;-73
2024/01/11 09:17:40;;;;;;;;;;;;;;;22.07;13.95;98473.16;5016702;28;1034;-73
2024/01/11 09:20:06;;;;;;;;;;;;;;;22.12;14.14;98471.06;5015849;28;984;-73
2024/01/11 09:22:31;;;;;;;;;;;;;;;21.89;13.92;98460.59;5015788;28;980;-73
2024/01/11 09:24:57;;;;;;;;;;;;;;;22.06;13.80;98448.09;4982854;28;964;-72
2024/01/11 09:27:22;;;;;;;;;;;;;;;22.20;13.84;98447.03;5012432;28;1025;-73
2024/01/11 09:29:48;;;;;;;;;;;;;;;22.18;13.74;98443.84;5017707;28;997;-73
2024/01/11 09:32:13;;;;;;;;;;;;;;;22.12;14.11;98435.03;5012016;28;2327;-74
2024/01/11 09:34:39;;;;;;;;;;;;;;;22.20;13.94;98433.66;5029151;28;1979;-72
2024/01/11 09:37:05;;;;;;;;;;;;;;;22.15;14.09;98428.50;5034793;28;1827;-72
2024/01/11 09:39:30;;;;;;;;;;;;;;;22.16;13.86;98417.94;4991044;28;2278;-73
2024/01/11 09:42:01;;;;;;;;;;;;;;;22.13;14.17;98419.63;5016124;28;973;-73
2024/01/11 09:44:27;;;;;;;;;;;;;;;22.32;13.78;98410.28;5014628;28;1178;-73
2024/01/11 09:46:53;;;;;;;;;;;;;;;22.22;13.79;98411.31;5002254;28;2098;-73
2024/01/11 09:49:19;;;;;;;;;;;;;;;21.99;13.98;98405.75;5017454;28;2189;-73
2024/01/11 09:51:44;;;;;;;;;;;;;;;22.23;14.25;98407.25;4991106;28;1910;-74
2024/01/11 09:54:10;;;;;;;;;;;;;;;22.10;13.92;98397.81;5008688;28;1938;-71
2024/01/11 09:56:36;;;;;;;;;;;;;;;22.10;14.14;98397.81;5018538;28;988;-72
2024/01/11 09:59:01;;;;;;;;;;;;;;;22.05;14.00;98389.81;5022165;28;1026;-73
2024/01/11 10:01:27;;;;;;;;;;;;;;;22.28;13.80;98392.56;5022069;28;1171;-73
2024/01/11 10:03:53;;;;;;;;;;;;;;;22.12;14.22;98378.34;5039204;28;1204;-73
2024/01/11 10:06:18;;;;;;;;;;;;;;;22.16;14.15;98379.06;5006904;28;1999;-72
2024/01/11 10:08:45;;;;;;;;;;;;;;;22.27;13.81;98373.16;4988722;28;1811;-74
2024/01/11 10:11:10;;;;;;;;;;;;;;;22.06;14.26;98366.69;5018483;28;1500;-73
2024/01/11 10:13:36;;;;;;;;;;;;;;;22.14;13.95;98358.88;5004510;28;1910;-73
2024/01/11 10:16:05;;;;;;;;;;;;;;;22.19;14.13;98355.53;5031586;28;1762;-73
2024/01/11 10:18:31;;;;;;;;;;;;;;;22.22;14.20;98351.00;5005191;28;1001;-74
2024/01/11 10:20:57;;;;;;;;;;;;;;;22.27;13.97;98345.59;5020687;28;1038;-73
2024/01/11 10:23:23;;;;;;;;;;;;;;;22.18;14.13;98348.25;5005288;28;944;-73
2024/01/11 10:25:48;;;;;;;;;;;;;;;21.97;14.16;98337.41;5005169;28;1151;-73
2024/01/11 10:28:14;;;;;;;;;;;;;;;21.94;14.52;98338.25;5003738;28;976;-73
2024/01/11 10:30:40;;;;;;;;;;;;;;;22.04;14.49;98337.22;5021160;28;999;-74
2024/01/11 10:33:06;;;;;;;;;;;;;;;22.25;14.07;98325.41;5021011;28;1906;-74
2024/01/11 10:35:32;;;;;;;;;;;;;;;22.10;14.00;98321.28;5020802;28;1045;-72
2024/01/11 10:37:58;;;;;;;;;;;;;;;22.14;13.98;98319.19;5021462;28;983;-74
2024/01/11 10:40:25;;;;;;;;;;;;;;;22.17;14.04;98320.34;5021429;28;993;-73
2024/01/11 10:42:51;;;;;;;;;;;;;;;22.25;13.93;98308.41;5005047;28;1114;-73
2024/01/11 10:45:17;;;;;;;;;;;;;;;22.03;14.14;98312.97;5016452;28;1945;-72
2024/01/11 10:48:01;;;;;;;;;;;;;;;22.29;14.23;98297.78;5001426;28;989;-73
2024/01/11 10:50:29;;;;;;;;;;;;;;;22.24;14.20;98306.03;4984171;28;1206;-73
2024/01/11 10:53:09;;;;;;;;;;;;;;;22.00;14.46;98302.50;4960903;28;1910;-74
2024/01/11 10:55:34;;;;;;;;;;;;;;;22.03;14.27;98293.13;4977254;28;1023;-73
2024/01/11 10:58:00;;;;;;;;;;;;;;;22.29;14.19;98286.44;4962259;28;1676;-73
2024/01/11 11:00:27;;;;;;;;;;;;;;;22.24;14.42;98284.13;4988740;28;2101;-73
2024/01/11 11:02:52;;;;;;;;;;;;;;;22.00;14.30;98274.16;4974440;28;1191;-75
2024/01/11 11:05:18;;;;;;;;;;;;;;;22.14;14.21;98271.03;4958176;29;1075;-73
2024/01/11 11:07:44;;;;;;;;;;;;;;;22.22;14.37;98271.63;4989673;28;1740;-74
2024/01/11 11:10:09;;;;;;;;;;;;;;;22.28;14.35;98264.22;4957038;29;1220;-74
2024/01/11 11:12:36;;;;;;;;;;;;;;;22.29;14.24;98257.31;4957572;29;1919;-74
2024/01/11 11:15:02;;;;;;;;;;;;;;;22.35;14.36;98247.81;4957562;29;962;-74
2024/01/11 11:17:27;;;;;;;;;;;;;;;22.19;14.32;98247.03;4941467;29;1454;-74
2024/01/11 11:19:53;;;;;;;;;;;;;;;22.13;14.32;98246.75;4925597;29;1182;-74
2024/01/11 11:22:19;;;;;;;;;;;;;;;22.25;14.44;98251.72;4941365;29;1060;-74
2024/01/11 11:24:45;;;;;;;;;;;;;;;22.07;14.56;98245.66;4925252;29;953;-73
2024/01/11 11:27:13;;;;;;;;;;;;;;;22.24;14.40;98244.44;4938460;29;920;-73
2024/01/11 11:29:39;;;;;;;;;;;;;;;22.31;14.25;98232.91;4969006;28;1965;-74
2024/01/11 11:32:04;;;;;;;;;;;;;;;22.33;14.38;98230.47;4961258;28;1708;-73
2024/01/11 11:34:45;;;;;;;;;;;;;;;22.35;14.46;98222.28;4979089;28;2239;-74
2024/01/11 11:37:11;;;;;;;;;;;;;;;22.17;14.50;98221.94;4959213;28;2128;-74
2024/01/11 11:39:37;;;;;;;;;;;;;;;22.30;14.63;98216.38;4942988;28;2218;-74
2024/01/11 11:42:04;;;;;;;;;;;;;;;22.22;14.39;98210.06;4957301;28;2036;-74
2024/01/11 11:44:30;;;;;;;;;;;;;;;22.29;14.28;98207.06;5004764;28;1774;-74
2024/01/11 11:47:16;;;;;;;;;;;;;;;22.39;14.62;98202.38;5013586;28;1827;-74
2024/01/11 11:49:59;;;;;;;;;;;;;;;22.11;14.62;98201.06;5034910;28;1117;-73
2024/01/11 11:52:24;;;;;;;;;;;;;;;21.99;14.64;98190.41;5002567;28;1973;-74
2024/01/11 11:54:50;;;;;;;;;;;;;;;22.27;14.61;98181.19;5018369;28;1099;-73
2024/01/11 11:57:16;;;;;;;;;;;;;;;22.38;14.63;98174.44;5001332;28;1978;-73
2024/01/11 11:59:42;;;;;;;;;;;;;;;22.38;14.54;98168.75;5017150;28;1755;-72
2024/01/11 12:02:09;;;;;;;;;;;;;;;22.30;14.68;98162.50;5015180;28;1064;-74
2024/01/11 12:04:34;;;;;;;;;;;;;;;22.39;14.37;98170.38;4982461;28;1261;-74
2024/01/11 12:07:00;;;;;;;;;;;;;;;22.13;14.93;98169.47;4995882;28;1156;-74
2024/01/11 12:09:26;;;;;;;;;;;;;;;22.32;14.59;98162.84;4998938;28;998;-73
2024/01/11 12:11:51;;;;;;;;;;;;;;;22.27;14.45;98158.50;4965986;28;1926;-75
2024/01/11 12:14:17;;;;;;;;;;;;;;;22.24;14.77;98170.75;4962505;28;1977;-74
2024/01/11 12:16:42;;;;;;;;;;;;;;;22.12;14.83;98162.97;4987065;28;1071;-73
2024/01/11 12:19:08;;;;;;;;;;;;;;;22.22;14.62;98166.75;4998222;28;967;-75
2024/01/11 12:21:34;;;;;;;;;;;;;;;22.26;14.52;98151.25;5013770;28;941;-74
2024/01/11 12:24:00;;;;;;;;;;;;;;;22.04;14.68;98153.84;4982717;28;1119;-74
2024/01/11 12:26:26;;;;;;;;;;;;;;;22.03;14.90;98148.63;4998039;28;1981;-74
2024/01/11 12:28:51;;;;;;;;;;;;;;;22.21;14.71;98154.63;4973789;28;1904;-74
2024/01/11 12:31:19;;;;;;;;;;;;;;;22.44;14.75;98150.00;4984901;28;1543;-74
2024/01/11 12:33:45;;;;;;;;;;;;;;;22.39;14.83;98147.69;4994850;28;1985;-74
2024/01/11 12:36:11;;;;;;;;;;;;;;;22.22;14.96;98144.88;4999694;28;1413;-73
2024/01/11 12:38:36;;;;;;;;;;;;;;;22.31;14.93;98136.53;5015630;28;929;-74
2024/01/11 12:41:03;;;;;;;;;;;;;;;22.38;14.59;98134.75;5016564;28;1124;-72
2024/01/11 12:43:29;;;;;;;;;;;;;;;22.16;14.78;98132.50;4984418;28;2022;-74
2024/01/11 12:45:54;;;;;;;;;;;;;;;22.14;14.86;98123.66;5012290;28;1390;-74
2024/01/11 12:48:20;;;;;;;;;;;;;;;22.43;14.88;98120.03;4970183;28;1773;-73
2024/01/11 12:50:45;;;;;;;;;;;;;;;22.27;14.92;98116.00;4957501;28;1901;-74
2024/01/11 12:53:17;;;;;;;;;;;;;;;21.99;14.89;98116.75;4975040;28;1903;-74
2024/01/11 12:55:46;;;;;;;;;;;;;;;22.14;15.11;98120.81;4958420;28;1641;-73